Terminal Aerodrome Forecast
Issued by NWS Twin Cities, MN

Home | Current Version | Previous Version | Graphics & Text | Print | Product List | Glossary On
Versions: 1 2 3 4 5 6 7 8 9 10 11 12 13 14 15
000
FTUS43 KMPX 231120
TAFEAU
TAF
KEAU 231120Z 2312/2412 29008KT P6SM SKC
     FM231600 30012KT P6SM SKC
     FM240000 VRB03KT P6SM SKC
     FM241000 11004KT P6SM SCT050 BKN100=

USA.gov is the U.S. government's official web portal to all federal, state and local government web resources and services.